Time;durP1;ratioP1;P1;durP2;ratioP2;P2;SDS_P1;SDS_P2;PMS_P1;PMS_P2;Temp;Humidity;BMP_temperature;BMP_pressure;BME280_temperature;BME280_humidity;BME280_pressure;Samples;Min_cycle;Max_cycle;Signal;HPM_P1;HPM_P2
2023/09/25 00:00:49;;;;;;;3.17;1.88;;;10.90;99.90;;;;;;5062947;28;20041;-81
2023/09/25 00:03:15;;;;;;;3.42;1.95;;;10.90;99.90;;;;;;5050651;28;20048;-81
2023/09/25 00:05:41;;;;;;;4.80;2.20;;;11.00;99.90;;;;;;5030796;28;20510;-80
2023/09/25 00:08:06;;;;;;;3.72;1.90;;;11.00;99.90;;;;;;5033350;28;20569;-80
2023/09/25 00:10:32;;;;;;;3.70;1.88;;;11.20;99.90;;;;;;5027589;28;20033;-81
2023/09/25 00:12:58;;;;;;;3.47;1.98;;;11.20;99.90;;;;;;5048716;28;20047;-80
2023/09/25 00:15:25;;;;;;;3.67;1.92;;;11.30;99.90;;;;;;5039982;28;20051;-80
2023/09/25 00:17:51;;;;;;;3.35;1.98;;;11.40;99.90;;;;;;5051845;28;20119;-80
2023/09/25 00:20:20;;;;;;;6.75;1.80;;;11.60;99.90;;;;;;5046948;28;20640;-80
2023/09/25 00:22:46;;;;;;;4.95;2.00;;;11.60;99.90;;;;;;5050520;28;20044;-80
2023/09/25 00:25:12;;;;;;;4.78;2.10;;;11.60;99.90;;;;;;5048550;28;20526;-81
2023/09/25 00:27:38;;;;;;;3.88;2.15;;;11.70;99.90;;;;;;5054915;28;20137;-81
2023/09/25 00:30:08;;;;;;;3.65;2.30;;;11.70;99.90;;;;;;5045941;28;20048;-80
2023/09/25 00:32:34;;;;;;;3.08;2.10;;;11.70;99.90;;;;;;5048142;28;20049;-81
2023/09/25 00:35:00;;;;;;;3.40;1.85;;;11.70;99.90;;;;;;5050314;28;20047;-80
2023/09/25 00:37:26;;;;;;;4.10;2.40;;;11.60;99.90;;;;;;5047790;28;20105;-81
2023/09/25 00:39:52;;;;;;;3.85;2.60;;;11.60;99.90;;;;;;5038397;28;20048;-80
2023/09/25 00:42:18;;;;;;;4.75;2.40;;;11.50;99.90;;;;;;5026241;28;20399;-81
2023/09/25 00:44:44;;;;;;;2.75;2.00;;;11.50;99.90;;;;;;5039899;28;20046;-81
2023/09/25 00:47:10;;;;;;;4.07;2.15;;;11.40;99.90;;;;;;5042246;28;20084;-80
2023/09/25 00:49:36;;;;;;;3.30;2.30;;;11.40;99.90;;;;;;5029635;28;20044;-81
2023/09/25 00:52:03;;;;;;;3.78;2.35;;;11.30;99.90;;;;;;5028319;28;20062;-81
2023/09/25 00:54:31;;;;;;;3.50;2.20;;;11.30;99.90;;;;;;5029103;28;20181;-80
2023/09/25 00:56:58;;;;;;;4.28;2.47;;;11.30;99.90;;;;;;5045687;28;20063;-80
2023/09/25 00:59:25;;;;;;;3.92;2.33;;;11.20;99.90;;;;;;5044976;28;20052;-81
2023/09/25 01:01:52;;;;;;;2.30;1.90;;;11.20;99.90;;;;;;5049143;28;20086;-81
2023/09/25 01:04:18;;;;;;;3.22;2.22;;;11.10;99.90;;;;;;5033694;28;20040;-81
2023/09/25 01:06:44;;;;;;;3.45;2.00;;;11.10;99.90;;;;;;5047228;28;20703;-81
2023/09/25 01:09:12;;;;;;;4.78;2.65;;;11.10;99.90;;;;;;5045188;28;20044;-80
2023/09/25 01:11:39;;;;;;;4.75;2.22;;;11.00;99.90;;;;;;5033454;28;20039;-80
2023/09/25 01:14:05;;;;;;;4.35;2.38;;;11.00;99.90;;;;;;5035834;28;20040;-81
2023/09/25 01:16:31;;;;;;;3.22;2.15;;;11.00;99.90;;;;;;5040079;28;20067;-81
2023/09/25 01:18:57;;;;;;;3.05;2.08;;;10.90;1.00;;;;;;5039225;28;20045;-81
2023/09/25 01:21:25;;;;;;;5.32;2.00;;;10.90;1.00;;;;;;5049026;28;20040;-81
2023/09/25 01:23:51;;;;;;;2.63;2.15;;;10.90;1.00;;;;;;5061095;28;20038;-81
2023/09/25 01:26:17;;;;;;;2.58;2.28;;;10.80;1.00;;;;;;5049009;28;20373;-80
2023/09/25 01:28:43;;;;;;;2.85;2.03;;;10.80;1.00;;;;;;5043228;28;20100;-81
2023/09/25 01:31:08;;;;;;;4.40;2.03;;;10.90;1.00;;;;;;5028128;28;20509;-81
2023/09/25 01:33:35;;;;;;;4.43;2.00;;;10.90;1.00;;;;;;5046521;28;20044;-81
2023/09/25 01:36:00;;;;;;;3.83;2.15;;;10.90;1.00;;;;;;5031454;28;20043;-81
2023/09/25 01:38:27;;;;;;;3.17;1.95;;;10.80;1.00;;;;;;5049766;28;20041;-81
2023/09/25 01:40:52;;;;;;;2.75;2.15;;;10.80;1.00;;;;;;5045339;28;20056;-80
2023/09/25 01:43:18;;;;;;;4.03;2.05;;;10.80;1.00;;;;;;5027659;28;20067;-80
2023/09/25 01:45:43;;;;;;;3.80;1.83;;;10.80;1.00;;;;;;5029012;28;20036;-80
2023/09/25 01:48:09;;;;;;;4.63;2.17;;;10.70;1.00;;;;;;5050069;28;20049;-80
2023/09/25 01:50:36;;;;;;;2.70;2.00;;;10.70;1.00;;;;;;5031531;28;20037;-80
2023/09/25 01:53:03;;;;;;;2.70;2.00;;;10.70;1.00;;;;;;5022868;28;20044;-81
2023/09/25 01:55:36;;;;;;;3.28;1.98;;;10.70;1.00;;;;;;5028880;28;20040;-81
2023/09/25 01:58:08;;;;;;;3.30;2.22;;;10.70;1.00;;;;;;5039957;28;20052;-80
2023/09/25 02:00:34;;;;;;;4.60;1.95;;;10.70;1.00;;;;;;5032553;28;20160;-81
2023/09/25 02:03:00;;;;;;;3.50;2.05;;;10.70;1.00;;;;;;5045350;28;20040;-80
2023/09/25 02:05:26;;;;;;;3.95;2.10;;;10.70;1.00;;;;;;5044412;28;20040;-80
2023/09/25 02:07:52;;;;;;;5.93;2.20;;;10.70;1.00;;;;;;5033805;28;20441;-81
2023/09/25 02:10:18;;;;;;;3.10;2.03;;;10.70;1.00;;;;;;5045334;28;20048;-81
2023/09/25 02:12:43;;;;;;;3.42;2.00;;;10.70;1.00;;;;;;5017528;28;20094;-80
2023/09/25 02:15:10;;;;;;;2.50;2.17;;;10.60;1.00;;;;;;5048667;28;20110;-81
2023/09/25 02:17:36;;;;;;;2.83;2.10;;;10.70;1.00;;;;;;5050880;28;20086;-80
2023/09/25 02:20:25;;;;;;;4.10;2.10;;;10.70;1.00;;;;;;5032264;28;20135;-80
2023/09/25 02:22:51;;;;;;;3.63;2.50;;;10.70;1.00;;;;;;5045744;28;20088;-81
2023/09/25 02:25:17;;;;;;;3.80;2.35;;;10.70;1.00;;;;;;5049155;28;20532;-80
2023/09/25 02:27:43;;;;;;;4.93;2.38;;;10.70;1.00;;;;;;5055982;28;20040;-80
2023/09/25 02:30:10;;;;;;;3.88;2.40;;;10.70;1.00;;;;;;5062338;28;20131;-80
2023/09/25 02:32:37;;;;;;;4.25;2.30;;;10.70;1.00;;;;;;5052529;28;20044;-80
2023/09/25 02:35:04;;;;;;;3.80;2.42;;;10.80;1.00;;;;;;5029036;28;20036;-81
2023/09/25 02:37:31;;;;;;;3.92;2.55;;;10.70;1.00;;;;;;5054015;28;20421;-81
2023/09/25 02:39:57;;;;;;;4.15;2.20;;;10.70;1.00;;;;;;5054945;28;20099;-82
2023/09/25 02:42:22;;;;;;;3.28;2.17;;;10.70;1.00;;;;;;5027988;28;20511;-81
2023/09/25 02:44:48;;;;;;;2.65;2.00;;;10.70;1.00;;;;;;5055203;28;20058;-81
2023/09/25 02:47:14;;;;;;;3.17;2.40;;;10.70;1.00;;;;;;5069637;28;20071;-81
2023/09/25 02:49:40;;;;;;;3.58;2.50;;;10.70;1.00;;;;;;5065660;28;20051;-81
2023/09/25 02:52:05;;;;;;;3.50;2.38;;;10.70;1.00;;;;;;5036254;28;20067;-81
2023/09/25 02:54:31;;;;;;;3.47;2.35;;;10.60;1.00;;;;;;5049443;28;20151;-81
2023/09/25 02:56:57;;;;;;;4.15;2.60;;;10.50;1.00;;;;;;5045381;28;20506;-81
2023/09/25 02:59:22;;;;;;;5.00;2.65;;;10.50;1.00;;;;;;5030201;28;20040;-80
2023/09/25 03:01:48;;;;;;;4.72;2.60;;;10.50;1.00;;;;;;5049911;28;20039;-81
2023/09/25 03:04:14;;;;;;;4.20;2.80;;;10.50;1.00;;;;;;5050025;28;20102;-81
2023/09/25 03:06:39;;;;;;;6.05;2.60;;;10.50;1.00;;;;;;5052954;28;20081;-80
2023/09/25 03:09:06;;;;;;;5.60;2.60;;;10.50;1.00;;;;;;5032945;28;20168;-81
2023/09/25 03:11:32;;;;;;;3.58;2.63;;;10.50;1.00;;;;;;5035442;28;20040;-81
2023/09/25 03:13:58;;;;;;;4.50;2.58;;;10.50;1.00;;;;;;5035017;28;20039;-81
2023/09/25 03:16:23;;;;;;;5.82;2.42;;;10.50;1.00;;;;;;5032098;28;20045;-81
2023/09/25 03:18:49;;;;;;;4.90;2.63;;;10.40;1.00;;;;;;5050355;28;20040;-81
2023/09/25 03:21:16;;;;;;;3.80;2.47;;;10.40;1.00;;;;;;5049050;28;20410;-81
2023/09/25 03:23:42;;;;;;;4.97;2.75;;;10.40;1.00;;;;;;5029941;28;20103;-81
2023/09/25 03:26:15;;;;;;;3.88;2.40;;;10.40;1.00;;;;;;5038430;28;20068;-81
2023/09/25 03:28:42;;;;;;;5.97;2.78;;;10.50;1.00;;;;;;5031207;28;20045;-81
2023/09/25 03:31:07;;;;;;;5.93;2.47;;;10.50;1.00;;;;;;5045428;28;20139;-81
2023/09/25 03:33:33;;;;;;;5.07;2.70;;;10.50;1.00;;;;;;5027889;28;20464;-81
2023/09/25 03:35:59;;;;;;;11.02;3.00;;;10.60;1.00;;;;;;5052813;28;20100;-81
2023/09/25 03:38:25;;;;;;;3.38;2.28;;;10.60;1.00;;;;;;5052279;28;20075;-81
2023/09/25 03:40:51;;;;;;;4.22;2.75;;;10.50;1.00;;;;;;5032556;28;20479;-81
2023/09/25 03:43:16;;;;;;;4.13;2.55;;;10.60;1.00;;;;;;5031868;28;20118;-81
2023/09/25 03:45:43;;;;;;;5.88;3.10;;;10.60;1.00;;;;;;5034344;28;20510;-81
2023/09/25 03:48:08;;;;;;;5.80;2.55;;;10.70;1.00;;;;;;5061167;28;20044;-81
2023/09/25 03:50:34;;;;;;;7.15;3.10;;;10.70;1.00;;;;;;5047766;28;20659;-81
2023/09/25 03:53:02;;;;;;;4.70;2.40;;;10.70;1.00;;;;;;5046355;28;20040;-81
2023/09/25 03:55:28;;;;;;;5.55;2.38;;;10.70;1.00;;;;;;5031195;28;20047;-81
2023/09/25 03:57:54;;;;;;;7.20;2.63;;;10.80;1.00;;;;;;5046974;28;20053;-81
2023/09/25 04:00:20;;;;;;;3.97;2.53;;;10.70;1.00;;;;;;5049427;28;20040;-81
2023/09/25 04:02:46;;;;;;;3.90;2.60;;;10.80;1.00;;;;;;5034235;28;20044;-81
2023/09/25 04:05:12;;;;;;;4.63;2.65;;;10.80;1.00;;;;;;5028713;28;20076;-81
2023/09/25 04:07:38;;;;;;;4.20;2.53;;;10.80;1.00;;;;;;5046650;28;20083;-81
2023/09/25 04:10:07;;;;;;;3.85;2.20;;;10.80;1.00;;;;;;5045659;28;20043;-81
2023/09/25 04:12:34;;;;;;;4.18;2.55;;;10.80;1.00;;;;;;5042877;28;20040;-81
2023/09/25 04:15:13;;;;;;;4.38;2.45;;;10.80;1.00;;;;;;5047308;28;20395;-81
2023/09/25 04:17:40;;;;;;;4.15;2.83;;;10.80;1.00;;;;;;5049619;28;20111;-81
2023/09/25 04:20:17;;;;;;;4.25;2.45;;;10.80;1.00;;;;;;5046044;28;20406;-80
2023/09/25 04:22:47;;;;;;;3.72;2.45;;;10.80;1.00;;;;;;5062521;28;20054;-80
2023/09/25 04:25:18;;;;;;;3.80;2.75;;;10.80;1.00;;;;;;5042320;28;20503;-81
2023/09/25 04:27:48;;;;;;;3.90;2.60;;;10.80;1.00;;;;;;5049494;28;20052;-81
2023/09/25 04:30:15;;;;;;;2.97;2.40;;;10.70;1.00;;;;;;5047002;28;20170;-80
2023/09/25 04:32:42;;;;;;;6.82;2.78;;;10.70;1.00;;;;;;5033704;28;20075;-81
2023/09/25 04:35:08;;;;;;;6.97;2.60;;;10.70;1.00;;;;;;5043801;28;20398;-81
2023/09/25 04:37:34;;;;;;;5.13;2.60;;;10.70;1.00;;;;;;5050661;28;20052;-81
2023/09/25 04:40:00;;;;;;;3.40;2.47;;;10.70;1.00;;;;;;5027411;28;20528;-82
2023/09/25 04:42:25;;;;;;;4.25;2.45;;;10.70;1.00;;;;;;5049384;28;20056;-81
2023/09/25 04:44:54;;;;;;;3.72;2.40;;;10.70;1.00;;;;;;5048142;28;20049;-81
2023/09/25 04:47:19;;;;;;;3.25;2.40;;;10.80;1.00;;;;;;5049223;28;20067;-81
2023/09/25 04:49:45;;;;;;;3.72;2.65;;;10.80;1.00;;;;;;5046708;28;20491;-81
2023/09/25 04:52:11;;;;;;;3.85;2.70;;;10.80;1.00;;;;;;5044034;28;20097;-80
2023/09/25 04:54:37;;;;;;;4.53;2.30;;;10.80;1.00;;;;;;5031884;28;20036;-82
2023/09/25 04:57:02;;;;;;;5.63;2.83;;;10.80;1.00;;;;;;5046829;28;20168;-81
2023/09/25 04:59:28;;;;;;;7.40;3.00;;;10.80;1.00;;;;;;5043504;28;20158;-81
2023/09/25 05:01:54;;;;;;;3.53;2.40;;;10.80;1.00;;;;;;5036793;28;20036;-82
2023/09/25 05:04:19;;;;;;;3.95;2.42;;;10.80;1.00;;;;;;5049826;28;20076;-82
2023/09/25 05:06:45;;;;;;;4.03;2.92;;;10.90;1.00;;;;;;5047823;28;20704;-82
2023/09/25 05:09:11;;;;;;;2.95;2.10;;;10.90;1.00;;;;;;5046675;28;20039;-82
2023/09/25 05:11:37;;;;;;;4.35;2.70;;;10.90;1.00;;;;;;5027660;28;20514;-81
2023/09/25 05:14:03;;;;;;;4.20;2.70;;;10.90;1.00;;;;;;5050331;28;20175;-81
2023/09/25 05:16:29;;;;;;;3.55;2.65;;;10.90;1.00;;;;;;5048887;28;20217;-80
2023/09/25 05:18:57;;;;;;;4.20;2.83;;;10.90;1.00;;;;;;5040794;28;20199;-80
2023/09/25 05:21:23;;;;;;;5.40;3.08;;;10.90;1.00;;;;;;5042389;28;20136;-81
2023/09/25 05:23:49;;;;;;;5.53;2.50;;;10.90;1.00;;;;;;5061025;28;20123;-81
2023/09/25 05:26:15;;;;;;;4.00;2.88;;;10.90;1.00;;;;;;5040910;28;20439;-82
2023/09/25 05:28:40;;;;;;;3.60;2.83;;;10.90;1.00;;;;;;5047566;28;20037;-81
2023/09/25 05:31:07;;;;;;;7.85;3.15;;;11.00;1.00;;;;;;5023681;28;20495;-81
2023/09/25 05:33:33;;;;;;;4.72;2.88;;;10.90;1.00;;;;;;5051720;28;20674;-81
2023/09/25 05:35:59;;;;;;;4.28;3.22;;;10.90;1.00;;;;;;5052113;28;20210;-81
2023/09/25 05:38:26;;;;;;;6.53;2.58;;;10.90;1.00;;;;;;5039197;28;20048;-81
2023/09/25 05:40:52;;;;;;;3.50;2.70;;;10.90;1.00;;;;;;5041972;28;20108;-81
2023/09/25 05:43:19;;;;;;;3.75;2.17;;;10.90;1.00;;;;;;5002552;28;20649;-81
2023/09/25 05:45:44;;;;;;;4.90;2.47;;;10.90;1.00;;;;;;5026881;28;20032;-82
2023/09/25 05:48:10;;;;;;;7.95;2.63;;;11.00;1.00;;;;;;5023848;28;20392;-82
2023/09/25 05:50:36;;;;;;;6.20;3.03;;;11.00;1.00;;;;;;5035371;28;20098;-81
2023/09/25 05:53:03;;;;;;;3.15;2.20;;;11.00;1.00;;;;;;5011978;28;20044;-81
2023/09/25 05:55:29;;;;;;;6.53;2.80;;;11.10;1.00;;;;;;5011455;28;20048;-81
2023/09/25 05:57:55;;;;;;;4.28;2.33;;;11.10;1.00;;;;;;5003540;28;20407;-81
2023/09/25 06:00:22;;;;;;;3.58;2.13;;;11.10;1.00;;;;;;5013853;28;20071;-82
2023/09/25 06:02:48;;;;;;;7.10;3.45;;;11.10;1.00;;;;;;5013518;28;20052;-81
2023/09/25 06:05:13;;;;;;;3.28;2.65;;;11.10;1.00;;;;;;5012977;28;20033;-81
2023/09/25 06:07:39;;;;;;;4.97;2.33;;;11.20;1.00;;;;;;5029949;28;20487;-81
2023/09/25 06:10:07;;;;;;;5.00;2.38;;;11.20;1.00;;;;;;5030073;28;20076;-81
2023/09/25 06:12:33;;;;;;;3.17;2.30;;;11.20;1.00;;;;;;5026839;28;20554;-81
2023/09/25 06:14:59;;;;;;;4.45;2.03;;;11.40;1.00;;;;;;5021662;28;20048;-81
2023/09/25 06:17:26;;;;;;;3.75;2.25;;;11.40;1.00;;;;;;5031162;28;20147;-82
2023/09/25 06:19:53;;;;;;;3.17;2.20;;;11.50;1.00;;;;;;5033458;28;20124;-82
2023/09/25 06:22:20;;;;;;;5.38;2.33;;;11.50;1.00;;;;;;5046831;28;20045;-81
2023/09/25 06:24:46;;;;;;;5.57;2.45;;;11.50;1.00;;;;;;5030619;28;20077;-82
2023/09/25 06:27:11;;;;;;;2.92;2.20;;;11.60;1.00;;;;;;5019651;28;20083;-81
2023/09/25 06:29:43;;;;;;;3.40;2.22;;;11.60;1.00;;;;;;5035741;28;20037;-82
2023/09/25 06:32:10;;;;;;;2.72;2.13;;;11.70;1.00;;;;;;5016987;28;20040;-82
2023/09/25 06:34:35;;;;;;;3.70;2.50;;;11.80;99.90;;;;;;5017945;28;20107;-82
2023/09/25 06:37:01;;;;;;;5.53;2.55;;;11.80;99.90;;;;;;5029300;28;20041;-82
2023/09/25 06:39:27;;;;;;;4.72;1.80;;;11.90;99.90;;;;;;5029676;28;20063;-82
2023/09/25 06:41:52;;;;;;;4.20;2.08;;;12.00;99.90;;;;;;5015317;28;20431;-82
2023/09/25 06:44:19;;;;;;;5.15;2.33;;;12.00;99.90;;;;;;5038815;28;20052;-82
2023/09/25 06:46:45;;;;;;;5.28;1.95;;;12.10;99.90;;;;;;5060290;28;20045;-83
2023/09/25 06:49:11;;;;;;;4.15;2.33;;;12.20;99.90;;;;;;5048028;28;20492;-82
2023/09/25 06:51:36;;;;;;;4.20;2.20;;;12.30;99.90;;;;;;5016195;28;20052;-82
2023/09/25 06:54:03;;;;;;;3.45;2.25;;;12.40;99.90;;;;;;5025103;28;20036;-82
2023/09/25 06:56:28;;;;;;;3.58;2.00;;;12.50;99.90;;;;;;5012822;28;20041;-83
2023/09/25 06:58:54;;;;;;;6.07;1.90;;;12.70;99.90;;;;;;5000970;28;20132;-83
2023/09/25 07:01:21;;;;;;;3.70;2.33;;;12.80;99.90;;;;;;5039715;28;20052;-82
2023/09/25 07:03:47;;;;;;;3.90;1.85;;;12.90;99.90;;;;;;5008907;28;20128;-82
2023/09/25 07:06:12;;;;;;;3.25;1.88;;;13.00;99.90;;;;;;5013603;28;20128;-84
2023/09/25 07:08:38;;;;;;;3.00;2.00;;;13.10;99.90;;;;;;5024355;28;20039;-82
2023/09/25 07:11:04;;;;;;;3.30;1.98;;;13.20;99.90;;;;;;5025362;28;20040;-82
2023/09/25 07:13:30;;;;;;;5.30;2.00;;;13.30;99.90;;;;;;5028503;28;20067;-82
2023/09/25 07:16:04;;;;;;;3.85;1.65;;;13.30;99.90;;;;;;5016039;28;20514;-82
2023/09/25 07:18:29;;;;;;;2.97;1.65;;;13.40;11.20;;;;;;5007315;28;20045;-82
2023/09/25 07:20:55;;;;;;;3.42;1.70;;;13.50;7.80;;;;;;5002309;28;20594;-82
2023/09/25 07:23:22;;;;;;;6.28;1.77;;;13.60;1.00;;;;;;5019769;28;20036;-82
2023/09/25 07:25:48;;;;;;;3.65;1.65;;;13.70;1.00;;;;;;5024562;28;20395;-82
2023/09/25 07:28:13;;;;;;;2.45;1.58;;;13.80;1.00;;;;;;5031234;28;20056;-83
2023/09/25 07:30:45;;;;;;;2.47;1.55;;;13.80;1.00;;;;;;5013412;28;20051;-82
2023/09/25 07:33:12;;;;;;;4.40;1.77;;;13.90;1.00;;;;;;5029883;28;20076;-83
2023/09/25 07:35:38;;;;;;;3.83;1.63;;;14.00;1.00;;;;;;5042587;28;20442;-82
2023/09/25 07:38:04;;;;;;;6.38;1.55;;;14.10;1.00;;;;;;5020533;28;20053;-80
2023/09/25 07:40:29;;;;;;;3.10;1.40;;;14.20;1.00;;;;;;5008953;28;20522;-77
2023/09/25 07:42:55;;;;;;;3.42;1.70;;;14.30;99.90;;;;;;5051210;28;20091;-78
2023/09/25 07:45:25;;;;;;;3.63;1.58;;;14.40;99.90;;;;;;5051466;28;20085;-77
2023/09/25 07:47:52;;;;;;;3.20;1.60;;;14.40;99.90;;;;;;5034602;28;20044;-77
2023/09/25 07:50:19;;;;;;;4.07;1.65;;;14.50;99.90;;;;;;5034461;28;20102;-77
2023/09/25 07:52:44;;;;;;;2.90;1.52;;;14.60;99.90;;;;;;5051867;28;20462;-77
2023/09/25 07:55:10;;;;;;;2.70;1.60;;;14.60;99.90;;;;;;5051327;28;20072;-77
2023/09/25 07:57:42;;;;;;;3.60;1.52;;;14.70;99.90;;;;;;5034392;28;20051;-77
2023/09/25 08:02:52;;;;;;;2.75;1.60;;;15.00;99.90;;;;;;5054296;28;20063;-76
2023/09/25 08:05:22;;;;;;;2.95;1.60;;;15.10;99.90;;;;;;5045837;28;20461;-77
2023/09/25 08:07:52;;;;;;;3.50;1.70;;;15.30;99.90;;;;;;5061111;28;20045;-75
2023/09/25 08:10:18;;;;;;;2.85;1.55;;;15.40;99.90;;;;;;5051526;28;20070;-76
2023/09/25 08:12:44;;;;;;;3.50;1.63;;;15.50;99.90;;;;;;5050877;28;20688;-77
2023/09/25 08:15:10;;;;;;;5.43;1.58;;;15.60;99.90;;;;;;5042126;28;20073;-77
2023/09/25 08:17:47;;;;;;;4.03;2.00;;;15.70;99.90;;;;;;5048569;28;20076;-76
2023/09/25 08:20:22;;;;;;;3.40;1.40;;;15.90;99.90;;;;;;5047463;28;20055;-77
2023/09/25 08:22:52;;;;;;;2.55;1.30;;;15.90;99.90;;;;;;5031114;28;20402;-77
2023/09/25 08:25:18;;;;;;;3.00;1.33;;;16.10;99.90;;;;;;5049335;28;20483;-76
2023/09/25 08:27:45;;;;;;;2.28;1.40;;;16.10;99.90;;;;;;5050646;28;20036;-76
2023/09/25 08:30:12;;;;;;;3.85;1.55;;;16.20;99.90;;;;;;5028087;28;20041;-75
2023/09/25 08:32:37;;;;;;;2.67;1.55;;;16.30;99.90;;;;;;5056356;28;20040;-75
2023/09/25 08:35:04;;;;;;;2.58;1.10;;;16.50;99.90;;;;;;5057427;28;20041;-76
2023/09/25 08:37:30;;;;;;;2.13;1.33;;;16.60;99.90;;;;;;5021733;28;20087;-76
2023/09/25 08:39:56;;;;;;;4.32;1.50;;;16.70;99.90;;;;;;5052375;28;20076;-76
2023/09/25 08:42:24;;;;;;;2.63;1.45;;;16.80;97.40;;;;;;5035748;28;20057;-76
2023/09/25 08:44:51;;;;;;;3.25;1.73;;;16.90;92.70;;;;;;5044786;28;20049;-76
2023/09/25 08:47:19;;;;;;;2.22;1.40;;;17.00;74.70;;;;;;5033546;28;20041;-76
2023/09/25 08:49:51;;;;;;;3.38;1.27;;;17.10;67.10;;;;;;5049749;28;20418;-76
2023/09/25 08:52:18;;;;;;;3.88;1.83;;;17.10;58.80;;;;;;5060419;28;20075;-76
2023/09/25 08:54:44;;;;;;;5.63;1.40;;;17.10;60.80;;;;;;5049974;28;20032;-75
2023/09/25 08:57:12;;;;;;;2.40;1.40;;;17.10;49.20;;;;;;5040250;28;20414;-76
2023/09/25 08:59:39;;;;;;;9.68;2.33;;;17.10;40.90;;;;;;5050307;28;20117;-76
2023/09/25 09:02:08;;;;;;;3.80;2.17;;;17.10;43.00;;;;;;5033310;28;20071;-76
2023/09/25 09:04:35;;;;;;;4.32;1.20;;;17.10;31.80;;;;;;5033230;28;20593;-76
2023/09/25 09:07:01;;;;;;;2.70;1.20;;;17.20;22.00;;;;;;5039894;28;20044;-76
2023/09/25 09:09:27;;;;;;;2.45;1.63;;;17.30;24.00;;;;;;5050295;28;20681;-76
2023/09/25 09:11:52;;;;;;;3.40;1.35;;;17.40;7.90;;;;;;5043652;28;20483;-76
2023/09/25 09:14:34;;;;;;;5.97;1.52;;;17.40;6.90;;;;;;5049523;28;20118;-76
2023/09/25 09:17:04;;;;;;;2.33;1.50;;;17.50;1.00;;;;;;5050071;28;20083;-75
2023/09/25 09:19:44;;;;;;;1.73;1.10;;;17.50;1.00;;;;;;5049852;28;20047;-76
2023/09/25 09:22:09;;;;;;;2.30;1.40;;;17.70;1.00;;;;;;5050057;28;20189;-76
2023/09/25 09:24:40;;;;;;;2.55;1.38;;;17.70;1.00;;;;;;5038629;28;20072;-76
2023/09/25 09:27:09;;;;;;;3.88;1.38;;;17.80;1.00;;;;;;5032472;28;20036;-76
2023/09/25 09:29:44;;;;;;;4.55;1.60;;;17.80;1.00;;;;;;5054958;28;20113;-76
2023/09/25 09:32:11;;;;;;;4.68;1.35;;;17.90;1.00;;;;;;5017231;28;20051;-77
2023/09/25 09:34:41;;;;;;;2.65;1.30;;;18.10;1.00;;;;;;5024862;28;20028;-75
2023/09/25 09:37:10;;;;;;;4.75;1.45;;;18.10;1.00;;;;;;5049783;28;20102;-76
2023/09/25 09:39:37;;;;;;;3.53;1.20;;;18.20;1.00;;;;;;5049635;28;20044;-76
2023/09/25 09:42:08;;;;;;;3.83;1.20;;;18.30;1.00;;;;;;5044809;28;20058;-76
2023/09/25 09:44:35;;;;;;;1.23;1.00;;;18.50;1.00;;;;;;5046111;28;20036;-76
2023/09/25 09:47:04;;;;;;;2.65;1.25;;;18.50;1.00;;;;;;5049482;28;20045;-76
2023/09/25 09:49:35;;;;;;;2.67;1.23;;;18.60;1.00;;;;;;5049714;28;20420;-77
2023/09/25 09:52:02;;;;;;;2.58;1.17;;;18.80;1.00;;;;;;5050703;28;20040;-76
2023/09/25 09:54:32;;;;;;;2.85;1.30;;;18.90;1.00;;;;;;5058655;28;20567;-77
2023/09/25 09:56:59;;;;;;;3.55;1.20;;;19.20;1.00;;;;;;5056001;28;20059;-77
2023/09/25 09:59:25;;;;;;;2.75;1.80;;;19.30;1.00;;;;;;5039750;28;20040;-77
2023/09/25 10:01:51;;;;;;;3.53;1.20;;;19.60;1.00;;;;;;5036658;28;20106;-77
2023/09/25 10:04:18;;;;;;;2.97;1.15;;;19.70;1.00;;;;;;5056174;28;20052;-78
2023/09/25 10:07:04;;;;;;;3.90;1.15;;;19.90;1.00;;;;;;5038422;28;20059;-77
2023/09/25 10:09:31;;;;;;;3.30;1.20;;;20.00;1.00;;;;;;5056627;28;20071;-77
2023/09/25 10:11:58;;;;;;;3.08;1.23;;;20.10;1.00;;;;;;5056000;28;20044;-77
2023/09/25 10:14:25;;;;;;;2.95;1.10;;;20.10;1.00;;;;;;5056177;28;20045;-77
2023/09/25 10:17:00;;;;;;;2.95;1.40;;;20.20;1.00;;;;;;5055963;28;20550;-77
2023/09/25 10:19:41;;;;;;;2.70;1.10;;;20.50;1.00;;;;;;5058226;28;20049;-77
2023/09/25 10:22:17;;;;;;;2.75;1.10;;;20.80;1.00;;;;;;5053749;28;20102;-77
2023/09/25 10:24:45;;;;;;;5.75;1.45;;;20.80;1.00;;;;;;5053429;28;20515;-78
2023/09/25 10:27:12;;;;;;;3.35;1.48;;;21.00;1.00;;;;;;5056343;28;20498;-77
2023/09/25 10:29:38;;;;;;;2.60;1.20;;;21.00;1.00;;;;;;5056079;28;20036;-77
2023/09/25 10:32:11;;;;;;;3.00;1.00;;;21.20;1.00;;;;;;5055909;28;20082;-77
2023/09/25 10:34:39;;;;;;;3.63;1.08;;;21.30;1.00;;;;;;5056069;28;20094;-77
2023/09/25 10:37:05;;;;;;;3.13;1.13;;;21.50;1.00;;;;;;5056185;28;20036;-78
2023/09/25 10:39:31;;;;;;;3.00;1.50;;;21.90;1.00;;;;;;5039569;28;20080;-78
2023/09/25 10:42:07;;;;;;;3.13;1.17;;;22.30;1.00;;;;;;5051889;28;20173;-77
2023/09/25 10:44:36;;;;;;;2.63;1.40;;;22.30;1.00;;;;;;5053751;28;20066;-78
2023/09/25 10:47:06;;;;;;;3.08;1.40;;;22.30;1.00;;;;;;5056515;28;20071;-77
2023/09/25 10:49:35;;;;;;;1.42;1.00;;;22.50;1.00;;;;;;5035372;28;20371;-78
2023/09/25 10:52:03;;;;;;;2.92;1.15;;;22.70;1.00;;;;;;5043798;28;20045;-77
2023/09/25 10:54:30;;;;;;;3.58;1.50;;;22.80;1.00;;;;;;5074612;28;20044;-77
2023/09/25 10:56:58;;;;;;;3.58;1.35;;;23.00;1.00;;;;;;5054974;28;20107;-78
2023/09/25 10:59:28;;;;;;;2.30;1.17;;;23.10;1.00;;;;;;5032063;28;20052;-77
2023/09/25 11:01:54;;;;;;;3.33;1.33;;;23.40;1.00;;;;;;5049759;28;20036;-77
2023/09/25 11:04:19;;;;;;;1.83;1.35;;;23.40;1.00;;;;;;5035333;28;20078;-77
2023/09/25 11:06:46;;;;;;;2.42;1.08;;;23.40;1.00;;;;;;5046438;28;20053;-77
2023/09/25 11:09:16;;;;;;;3.83;1.15;;;23.50;1.00;;;;;;5051964;28;20060;-78
2023/09/25 11:11:45;;;;;;;2.85;1.10;;;23.60;1.00;;;;;;5051759;28;20038;-78
2023/09/25 11:14:12;;;;;;;1.90;1.10;;;23.90;1.00;;;;;;5059438;28;20062;-77
2023/09/25 11:16:39;;;;;;;2.92;1.10;;;24.20;1.00;;;;;;5035676;28;20517;-77
2023/09/25 11:19:15;;;;;;;3.17;1.40;;;24.50;1.00;;;;;;5039582;28;20497;-77
2023/09/25 11:21:45;;;;;;;3.15;1.00;;;24.60;1.00;;;;;;5038741;28;20098;-77
2023/09/25 11:24:11;;;;;;;4.03;1.20;;;24.80;1.00;;;;;;5035678;28;20570;-77
2023/09/25 11:26:38;;;;;;;2.95;1.40;;;25.20;1.00;;;;;;5052026;28;20127;-78
2023/09/25 11:29:07;;;;;;;2.20;1.48;;;25.60;1.00;;;;;;5052660;28;20116;-78
2023/09/25 11:31:35;;;;;;;1.80;1.00;;;26.20;1.00;;;;;;5045028;28;20505;-77
2023/09/25 11:34:00;;;;;;;3.38;1.30;;;26.80;1.00;;;;;;5051059;28;20048;-77
2023/09/25 11:36:27;;;;;;;4.88;1.50;;;27.20;1.00;;;;;;5034946;28;20498;-77
2023/09/25 11:38:52;;;;;;;2.50;1.15;;;27.50;1.00;;;;;;5035482;28;20399;-78
2023/09/25 11:41:18;;;;;;;2.65;1.15;;;27.80;1.00;;;;;;5032629;28;20049;-79
2023/09/25 11:43:44;;;;;;;2.65;1.20;;;28.10;1.00;;;;;;5063970;28;20043;-78
2023/09/25 11:46:09;;;;;;;3.15;1.52;;;28.10;1.00;;;;;;5047286;28;20128;-79
2023/09/25 11:48:38;;;;;;;3.58;1.27;;;28.30;1.00;;;;;;5034950;28;20116;-78
2023/09/25 11:51:03;;;;;;;2.45;1.40;;;28.10;1.00;;;;;;5051256;28;20033;-78
2023/09/25 11:53:29;;;;;;;2.35;1.20;;;28.20;1.00;;;;;;5043464;28;20055;-78
2023/09/25 11:55:55;;;;;;;2.15;1.13;;;28.20;1.00;;;;;;5034841;28;20052;-77
2023/09/25 11:58:21;;;;;;;2.40;1.17;;;28.30;1.00;;;;;;5039417;28;20097;-78
2023/09/25 12:00:46;;;;;;;3.00;0.80;;;28.40;1.00;;;;;;5051814;28;20044;-78
2023/09/25 12:03:12;;;;;;;1.90;1.13;;;28.30;1.00;;;;;;5056288;28;20279;-78
2023/09/25 12:05:37;;;;;;;1.40;1.05;;;28.70;1.00;;;;;;5052118;28;20498;-78
2023/09/25 12:08:06;;;;;;;4.30;1.13;;;29.00;1.00;;;;;;5051368;28;20032;-78
2023/09/25 12:10:37;;;;;;;1.73;1.15;;;29.20;1.00;;;;;;5033261;28;20083;-77
2023/09/25 12:13:07;;;;;;;3.78;0.98;;;28.80;1.00;;;;;;5051997;28;20111;-78
2023/09/25 12:15:32;;;;;;;2.03;1.00;;;28.10;1.00;;;;;;5034016;28;20082;-78
2023/09/25 12:17:58;;;;;;;2.85;1.25;;;27.60;1.00;;;;;;5051792;28;20465;-77
2023/09/25 12:20:24;;;;;;;2.17;1.25;;;27.10;1.00;;;;;;5036104;28;20483;-76
2023/09/25 12:22:52;;;;;;;3.35;1.67;;;26.50;1.00;;;;;;5043252;28;20093;-78
2023/09/25 12:25:19;;;;;;;1.70;1.00;;;26.00;1.00;;;;;;5046722;28;20132;-77
2023/09/25 12:27:45;;;;;;;2.38;1.20;;;25.60;1.00;;;;;;5043327;28;20502;-78
2023/09/25 12:30:14;;;;;;;3.22;1.20;;;25.40;1.00;;;;;;5050084;28;20494;-78
2023/09/25 12:32:40;;;;;;;1.92;1.23;;;25.30;1.00;;;;;;5050766;28;20048;-77
2023/09/25 12:35:08;;;;;;;2.25;1.00;;;25.10;1.00;;;;;;5051235;28;20036;-77
2023/09/25 12:37:34;;;;;;;2.13;1.05;;;25.00;1.00;;;;;;5050755;28;20048;-77
2023/09/25 12:40:00;;;;;;;3.70;1.02;;;25.00;1.00;;;;;;5049978;28;20044;-76
2023/09/25 12:42:28;;;;;;;3.40;1.25;;;25.10;1.00;;;;;;5034053;28;20186;-78
2023/09/25 12:44:54;;;;;;;1.92;0.90;;;25.10;1.00;;;;;;5049958;28;20498;-77
2023/09/25 12:47:21;;;;;;;2.38;1.25;;;25.20;1.00;;;;;;5050354;28;20041;-77
2023/09/25 12:49:48;;;;;;;3.10;1.20;;;25.30;1.00;;;;;;5050246;28;20040;-77
2023/09/25 12:52:14;;;;;;;4.32;1.23;;;25.30;1.00;;;;;;5050347;28;20040;-76
2023/09/25 12:54:40;;;;;;;2.83;0.90;;;25.10;1.00;;;;;;5049547;28;20036;-77
2023/09/25 12:57:07;;;;;;;1.35;0.90;;;24.90;1.00;;;;;;5052933;28;20047;-77